createdAt,value
2022-11-14T00:01:44.553Z,18.80
2022-11-14T00:03:34.813Z,24.50
2022-11-14T00:05:25.383Z,20.40
2022-11-14T00:07:18.196Z,23.40
2022-11-14T00:09:08.409Z,25.80
2022-11-14T00:11:01.261Z,23.60
2022-11-14T00:12:54.822Z,23.80
2022-11-14T00:14:46.564Z,23.00
2022-11-14T00:16:37.458Z,22.30
2022-11-14T00:18:28.013Z,24.80
2022-11-14T00:20:18.553Z,22.70
2022-11-14T00:22:08.707Z,21.70
2022-11-14T00:23:58.787Z,21.20
2022-11-14T00:25:49.592Z,27.80
2022-11-14T00:27:42.631Z,25.60
2022-11-14T00:29:33.018Z,29.40
2022-11-14T00:31:24.607Z,22.40
2022-11-14T00:33:20.089Z,28.20
2022-11-14T00:35:11.414Z,27.10
2022-11-14T00:37:02.378Z,28.30
2022-11-14T00:38:57.167Z,27.50
2022-11-14T00:40:47.524Z,25.20
2022-11-14T00:42:37.850Z,28.60
2022-11-14T00:44:28.273Z,30.00
2022-11-14T00:46:18.726Z,22.00
2022-11-14T00:48:09.302Z,26.20
2022-11-14T00:49:59.608Z,26.20
2022-11-14T00:51:50.074Z,27.00
2022-11-14T00:53:40.321Z,25.70
2022-11-14T00:55:31.010Z,28.50
2022-11-14T00:57:21.223Z,29.00
2022-11-14T00:59:12.603Z,28.70
2022-11-14T01:01:03.200Z,27.20
2022-11-14T01:02:56.925Z,28.30
2022-11-14T01:04:47.130Z,25.20
2022-11-14T01:06:37.166Z,26.50
2022-11-14T01:08:27.656Z,27.50
2022-11-14T01:10:18.977Z,24.70
2022-11-14T01:12:09.287Z,26.20
2022-11-14T01:14:01.271Z,26.30
2022-11-14T01:15:52.196Z,26.70
2022-11-14T01:17:42.640Z,24.70
2022-11-14T01:19:32.982Z,28.50
2022-11-14T01:21:23.777Z,27.20
2022-11-14T01:23:17.075Z,30.00
2022-11-14T01:25:08.424Z,28.40
2022-11-14T01:26:58.936Z,29.20
2022-11-14T01:28:49.868Z,27.30
2022-11-14T01:30:40.399Z,31.30
2022-11-14T01:32:35.084Z,29.10
2022-11-14T01:34:26.536Z,29.00
2022-11-14T01:36:21.151Z,27.20
2022-11-14T01:38:16.015Z,27.70
2022-11-14T01:40:07.760Z,28.90
2022-11-14T01:41:58.679Z,27.60
2022-11-14T01:43:49.394Z,31.70
2022-11-14T01:46:07.513Z,30.70
2022-11-14T01:47:57.931Z,28.70
2022-11-14T01:49:59.867Z,29.50
2022-11-14T01:52:20.367Z,30.80
2022-11-14T01:54:18.578Z,34.50
2022-11-14T01:56:14.159Z,32.10
2022-11-14T01:58:04.625Z,28.50
2022-11-14T01:59:59.726Z,28.90
2022-11-14T02:01:53.711Z,27.90
2022-11-14T02:03:50.302Z,27.70
2022-11-14T02:05:42.815Z,29.90
2022-11-14T02:07:38.087Z,30.40
2022-11-14T02:09:34.824Z,29.30
2022-11-14T02:11:29.506Z,32.40
2022-11-14T02:13:19.887Z,30.30
2022-11-14T02:15:10.897Z,28.70
2022-11-14T02:17:27.777Z,30.20
2022-11-14T02:19:17.956Z,30.50
2022-11-14T02:21:08.298Z,29.70
2022-11-14T02:22:58.955Z,32.10
2022-11-14T02:24:50.185Z,35.30
2022-11-14T02:26:42.811Z,28.40
2022-11-14T02:28:33.201Z,30.00
2022-11-14T02:30:23.884Z,32.60
2022-11-14T02:32:14.331Z,30.70
2022-11-14T02:34:04.617Z,33.20
2022-11-14T02:35:55.054Z,33.30
2022-11-14T02:37:45.546Z,30.80
2022-11-14T02:39:35.943Z,30.80
2022-11-14T02:41:34.844Z,31.70
2022-11-14T02:43:26.894Z,35.60
2022-11-14T02:45:18.051Z,34.30
2022-11-14T02:47:08.174Z,34.40
2022-11-14T02:48:58.895Z,37.90
2022-11-14T02:50:50.543Z,31.20
2022-11-14T02:52:41.256Z,31.80
2022-11-14T02:54:32.203Z,35.20
2022-11-14T02:56:24.468Z,32.20
2022-11-14T02:58:14.688Z,34.10
2022-11-14T03:00:11.649Z,37.20
2022-11-14T03:02:05.635Z,35.00
2022-11-14T03:03:56.009Z,38.40
2022-11-14T03:05:48.597Z,34.50
2022-11-14T03:07:38.910Z,34.40
2022-11-14T03:09:29.342Z,34.50
2022-11-14T03:11:20.295Z,35.40
2022-11-14T03:13:10.683Z,27.90
2022-11-14T03:15:01.213Z,31.30
2022-11-14T03:16:51.380Z,32.20
2022-11-14T03:18:42.263Z,29.80
2022-11-14T03:20:32.378Z,34.70
2022-11-14T03:22:22.823Z,32.10
2022-11-14T03:24:13.344Z,32.30
2022-11-14T03:26:07.389Z,33.30
2022-11-14T03:27:57.436Z,29.70
2022-11-14T03:29:50.598Z,32.10
2022-11-14T03:31:43.964Z,29.10
2022-11-14T03:33:35.751Z,28.00
2022-11-14T03:35:26.461Z,30.60
2022-11-14T03:37:16.681Z,25.70
2022-11-14T03:39:07.427Z,29.50
2022-11-14T03:41:01.960Z,33.10
2022-11-14T03:42:52.193Z,30.00
2022-11-14T03:44:42.217Z,33.90
2022-11-14T03:46:32.536Z,34.60
2022-11-14T03:48:23.351Z,29.20
2022-11-14T03:50:14.945Z,34.70
2022-11-14T03:52:05.609Z,35.30
2022-11-14T03:53:56.124Z,40.30
2022-11-14T03:55:46.281Z,46.10
2022-11-14T03:57:36.723Z,42.10
2022-11-14T03:59:27.347Z,45.80
2022-11-14T04:01:17.784Z,44.50
2022-11-14T04:03:08.426Z,45.20
2022-11-14T04:04:59.265Z,41.80
2022-11-14T04:06:49.759Z,36.20
2022-11-14T04:08:41.677Z,33.10
2022-11-14T04:10:32.126Z,31.20
2022-11-14T04:12:22.446Z,30.10
2022-11-14T04:14:13.047Z,27.10
2022-11-14T04:16:06.439Z,25.60
2022-11-14T04:17:56.901Z,26.30
2022-11-14T04:19:47.426Z,23.40
2022-11-14T04:21:37.828Z,25.30
2022-11-14T04:23:28.166Z,25.20
2022-11-14T04:25:18.292Z,27.40
2022-11-14T04:27:08.954Z,28.40
2022-11-14T04:29:00.041Z,24.60
2022-11-14T04:30:50.504Z,26.80
2022-11-14T04:32:41.194Z,27.70
2022-11-14T04:34:31.898Z,25.10
2022-11-14T04:36:22.276Z,24.30
2022-11-14T04:38:12.522Z,24.10
2022-11-14T04:40:03.294Z,27.20
2022-11-14T04:41:53.592Z,29.60
2022-11-14T04:43:49.514Z,24.90
2022-11-14T04:45:41.179Z,25.70
2022-11-14T04:47:31.444Z,23.80
2022-11-14T04:49:21.851Z,26.70
2022-11-14T04:51:12.194Z,25.80
2022-11-14T04:53:02.716Z,26.00
2022-11-14T04:54:53.161Z,31.50
2022-11-14T04:56:43.184Z,30.30
2022-11-14T04:58:33.843Z,27.70
2022-11-14T05:00:25.580Z,30.40
2022-11-14T05:02:15.913Z,26.50
2022-11-14T05:04:06.063Z,26.90
2022-11-14T05:06:01.777Z,29.10
2022-11-14T05:07:52.242Z,30.40
2022-11-14T05:09:42.634Z,25.80
2022-11-14T05:11:33.169Z,28.70
2022-11-14T05:13:24.428Z,26.40
2022-11-14T05:15:14.598Z,28.80
2022-11-14T05:17:05.416Z,29.70
2022-11-14T05:18:55.806Z,31.80
2022-11-14T05:20:46.106Z,28.40
2022-11-14T05:22:36.158Z,27.10
2022-11-14T05:24:27.254Z,33.70
2022-11-14T05:26:19.244Z,28.10
2022-11-14T05:28:09.774Z,34.20
2022-11-14T05:30:00.854Z,30.10
2022-11-14T05:31:52.438Z,30.90
2022-11-14T05:33:42.575Z,33.90
2022-11-14T05:35:32.920Z,33.30
2022-11-14T05:37:23.610Z,31.80
2022-11-14T05:39:14.140Z,31.50
2022-11-14T05:41:11.525Z,29.40
2022-11-14T05:43:02.212Z,30.00
2022-11-14T05:44:53.947Z,29.00
2022-11-14T05:46:44.118Z,28.00
2022-11-14T05:48:34.930Z,31.00
2022-11-14T05:50:25.001Z,31.00
2022-11-14T05:52:15.364Z,31.20
2022-11-14T05:54:10.789Z,33.10
2022-11-14T05:56:07.083Z,35.40
2022-11-14T05:58:03.244Z,29.80
2022-11-14T05:59:58.235Z,37.50
2022-11-14T06:01:48.544Z,32.60
2022-11-14T06:03:44.862Z,32.60
2022-11-14T06:05:36.272Z,33.20
2022-11-14T06:07:26.642Z,31.90
2022-11-14T06:09:18.210Z,36.30
2022-11-14T06:11:14.396Z,31.90
2022-11-14T06:13:04.720Z,35.90
2022-11-14T06:14:57.049Z,33.90
2022-11-14T06:16:47.644Z,33.20
2022-11-14T06:18:39.918Z,40.80
2022-11-14T06:20:30.269Z,34.90
2022-11-14T06:22:20.754Z,37.50
2022-11-14T06:24:11.026Z,33.20
2022-11-14T06:26:05.551Z,37.10
2022-11-14T06:27:56.106Z,34.30
2022-11-14T06:29:46.756Z,34.80
2022-11-14T06:31:36.839Z,35.10
2022-11-14T06:33:29.470Z,38.10
2022-11-14T06:35:20.232Z,32.10
2022-11-14T06:37:10.873Z,35.20
2022-11-14T06:39:01.326Z,33.30
2022-11-14T06:40:51.778Z,35.00
2022-11-14T06:42:42.301Z,36.30
2022-11-14T06:44:32.764Z,35.90
2022-11-14T06:46:23.776Z,33.10
2022-11-14T06:48:14.153Z,28.40
2022-11-14T06:50:05.997Z,30.40
2022-11-14T06:51:56.360Z,28.80
2022-11-14T06:53:46.545Z,27.60
2022-11-14T06:55:37.036Z,30.30
2022-11-14T06:57:27.632Z,28.90
2022-11-14T06:59:18.398Z,33.20
2022-11-14T07:01:16.467Z,33.00
2022-11-14T07:03:07.019Z,37.80
2022-11-14T07:04:57.530Z,36.00
2022-11-14T07:06:47.757Z,31.00
2022-11-14T07:08:39.003Z,29.90
2022-11-14T07:10:31.687Z,35.30
2022-11-14T07:12:22.113Z,32.30
2022-11-14T07:14:12.418Z,27.00
2022-11-14T07:16:04.344Z,28.60
2022-11-14T07:17:54.578Z,32.20
2022-11-14T07:19:46.093Z,32.60
2022-11-14T07:21:37.238Z,33.80
2022-11-14T07:23:30.277Z,38.90
2022-11-14T07:25:23.269Z,29.90
2022-11-14T07:27:17.581Z,29.50
2022-11-14T07:29:08.101Z,32.30
2022-11-14T07:30:59.155Z,28.00
2022-11-14T07:32:56.785Z,29.90
2022-11-14T07:34:47.000Z,33.90
2022-11-14T07:36:37.739Z,30.00
2022-11-14T07:38:28.368Z,28.60
2022-11-14T07:40:19.317Z,26.60
2022-11-14T07:42:09.584Z,28.70
2022-11-14T07:44:00.383Z,33.80
2022-11-14T07:45:50.827Z,33.20
2022-11-14T07:47:41.262Z,26.80
2022-11-14T07:49:32.215Z,28.00
2022-11-14T07:51:22.361Z,25.00
2022-11-14T07:53:12.848Z,32.00
2022-11-14T07:55:03.421Z,28.20
2022-11-14T07:56:53.866Z,27.50
2022-11-14T07:58:44.161Z,28.80
2022-11-14T08:00:35.341Z,33.30
2022-11-14T08:02:26.138Z,20.60
2022-11-14T08:04:18.653Z,27.20
2022-11-14T08:06:13.874Z,27.70
2022-11-14T08:08:05.869Z,24.50
2022-11-14T08:09:56.101Z,26.90
2022-11-14T08:11:50.713Z,27.80
2022-11-14T08:13:40.827Z,25.50
2022-11-14T08:15:31.748Z,25.10
2022-11-14T08:17:25.021Z,23.00
2022-11-14T08:19:16.770Z,23.40
2022-11-14T08:21:07.702Z,22.90
2022-11-14T08:23:07.819Z,25.40
2022-11-14T08:24:59.623Z,24.50
2022-11-14T08:26:50.258Z,25.00
2022-11-14T08:28:40.722Z,24.60
2022-11-14T08:30:31.730Z,24.70
2022-11-14T08:32:22.004Z,24.70
2022-11-14T08:34:13.155Z,22.20
2022-11-14T08:36:05.437Z,25.70
2022-11-14T08:37:55.858Z,21.20
2022-11-14T08:39:46.115Z,26.60
2022-11-14T08:41:37.501Z,23.70
2022-11-14T08:43:28.206Z,23.80
2022-11-14T08:45:18.496Z,24.00
2022-11-14T08:47:08.991Z,25.70
2022-11-14T08:48:59.511Z,26.60
2022-11-14T08:50:50.078Z,23.80
2022-11-14T08:52:40.886Z,22.00
2022-11-14T08:54:31.432Z,23.80
2022-11-14T08:56:23.001Z,26.20
2022-11-14T08:58:14.914Z,26.20
2022-11-14T09:00:06.961Z,26.90
2022-11-14T09:01:58.891Z,27.10
2022-11-14T09:03:52.212Z,23.40
2022-11-14T09:05:52.972Z,24.90
2022-11-14T09:07:43.420Z,22.90
2022-11-14T09:09:33.745Z,26.50
2022-11-14T09:11:24.304Z,27.30
2022-11-14T09:13:14.812Z,23.70
2022-11-14T09:15:05.633Z,24.00
2022-11-14T09:16:55.893Z,23.60
2022-11-14T09:18:46.056Z,25.80
2022-11-14T09:20:39.892Z,24.80
2022-11-14T09:22:31.564Z,21.80
2022-11-14T09:24:23.370Z,22.00
2022-11-14T09:26:14.628Z,25.20
2022-11-14T09:28:09.459Z,19.70
2022-11-14T09:30:03.288Z,24.20
2022-11-14T09:31:55.770Z,18.60
2022-11-14T09:33:46.287Z,20.10
2022-11-14T09:35:38.933Z,15.90
2022-11-14T09:37:31.044Z,17.70
2022-11-14T09:39:21.393Z,14.20
2022-11-14T09:41:40.399Z,18.40
2022-11-14T09:43:47.675Z,17.20
2022-11-14T09:45:47.965Z,17.00
2022-11-14T09:47:54.717Z,15.90
2022-11-14T09:52:03.321Z,15.80
2022-11-14T09:54:25.574Z,15.50
2022-11-14T09:56:28.580Z,19.10
2022-11-14T09:58:21.420Z,16.70
2022-11-14T10:00:26.398Z,20.10
2022-11-14T10:02:41.836Z,14.50
2022-11-14T10:04:43.797Z,15.00
2022-11-14T10:07:04.235Z,18.40
2022-11-14T10:09:34.913Z,17.30
2022-11-14T10:12:12.432Z,19.60
2022-11-14T10:14:44.596Z,17.60
2022-11-14T10:17:38.974Z,17.90
2022-11-14T10:19:42.958Z,16.00
2022-11-14T10:22:11.561Z,12.50
2022-11-14T10:24:11.503Z,19.00
2022-11-14T10:26:26.761Z,16.00
2022-11-14T10:28:48.246Z,20.80
2022-11-14T10:31:21.207Z,16.90
2022-11-14T10:34:02.117Z,21.10
2022-11-14T10:36:03.095Z,19.40
2022-11-14T10:38:33.482Z,17.70
2022-11-14T10:40:33.716Z,17.30
2022-11-14T10:42:36.751Z,15.70
2022-11-14T10:44:36.884Z,18.10
2022-11-14T10:47:10.431Z,17.90
2022-11-14T10:49:01.025Z,14.60
2022-11-14T10:51:19.285Z,16.30
2022-11-14T10:53:37.846Z,18.10
2022-11-14T10:55:57.239Z,15.40
2022-11-14T10:57:45.409Z,17.90
2022-11-14T10:59:36.475Z,17.70
2022-11-14T11:01:39.159Z,16.90
2022-11-14T11:03:46.052Z,17.00
2022-11-14T11:05:56.614Z,15.70
2022-11-14T11:10:42.005Z,15.30
2022-11-14T11:12:49.575Z,15.50
2022-11-14T11:14:43.192Z,14.40
2022-11-14T11:16:33.662Z,17.50
2022-11-14T11:18:35.436Z,18.10
2022-11-14T11:20:36.482Z,17.40
2022-11-14T11:22:37.875Z,17.50
2022-11-14T11:24:38.081Z,13.50
2022-11-14T11:26:31.940Z,15.30
2022-11-14T11:28:23.718Z,17.00
2022-11-14T11:30:26.122Z,15.40
2022-11-14T11:32:28.272Z,15.10
2022-11-14T11:34:26.718Z,17.50
2022-11-14T11:36:23.726Z,15.90
2022-11-14T11:38:17.271Z,15.00
2022-11-14T11:40:17.996Z,17.70
2022-11-14T11:42:20.077Z,14.60
2022-11-14T11:44:17.688Z,16.50
2022-11-14T11:46:25.732Z,11.20
2022-11-14T11:48:27.804Z,15.10
2022-11-14T11:50:21.210Z,16.10
2022-11-14T11:52:28.011Z,16.10
2022-11-14T11:54:24.870Z,15.50
2022-11-14T11:56:22.270Z,15.70
2022-11-14T11:58:26.710Z,13.90
2022-11-14T12:00:20.737Z,14.20
2022-11-14T12:02:38.021Z,14.20
2022-11-14T12:04:28.516Z,16.60
2022-11-14T12:06:25.314Z,17.40
2022-11-14T12:08:47.115Z,15.30
2022-11-14T12:10:42.320Z,13.90
2022-11-14T12:12:51.873Z,13.50
2022-11-14T12:15:18.424Z,14.60
2022-11-14T12:17:36.102Z,12.80
2022-11-14T12:19:58.907Z,11.70
2022-11-14T12:22:37.862Z,14.20
2022-11-14T12:25:14.144Z,13.00
2022-11-14T12:27:35.695Z,15.40
2022-11-14T12:29:43.987Z,12.00
2022-11-14T12:31:38.356Z,9.60
2022-11-14T12:33:36.900Z,12.40
2022-11-14T12:35:34.298Z,13.70
2022-11-14T12:37:35.242Z,10.40
2022-11-14T12:39:30.300Z,13.30
2022-11-14T12:41:38.108Z,13.50
2022-11-14T12:43:38.463Z,13.30
2022-11-14T12:45:48.695Z,12.40
2022-11-14T12:48:17.248Z,13.40
2022-11-14T12:50:42.282Z,11.40
2022-11-14T12:52:43.889Z,11.80
2022-11-14T12:54:49.079Z,11.70
2022-11-14T12:57:09.806Z,10.00
2022-11-14T12:59:37.700Z,11.50
2022-11-14T13:01:49.839Z,9.80
2022-11-14T13:04:09.565Z,9.80
2022-11-14T13:06:09.334Z,10.10
2022-11-14T13:08:36.914Z,11.50
2022-11-14T13:10:38.500Z,10.40
2022-11-14T13:12:53.971Z,10.60
2022-11-14T13:15:12.725Z,11.80
2022-11-14T13:17:36.261Z,10.20
2022-11-14T13:19:45.535Z,10.70
2022-11-14T13:21:48.349Z,9.40
2022-11-14T13:23:41.539Z,9.60
2022-11-14T13:25:32.554Z,10.30
2022-11-14T13:28:00.339Z,11.30
2022-11-14T13:29:48.682Z,10.00
2022-11-14T13:31:38.618Z,8.40
2022-11-14T13:34:34.738Z,11.60
2022-11-14T13:36:47.728Z,11.30
2022-11-14T13:39:26.137Z,10.70
2022-11-14T13:41:53.673Z,9.80
2022-11-14T13:46:58.554Z,10.00
2022-11-14T13:48:57.859Z,9.00
2022-11-14T13:50:55.596Z,9.90
2022-11-14T13:52:51.146Z,12.50
2022-11-14T13:54:49.808Z,10.50
2022-11-14T13:57:01.150Z,12.40
2022-11-14T13:59:16.082Z,11.00
2022-11-14T14:01:31.761Z,11.80
2022-11-14T14:04:07.041Z,11.00
2022-11-14T14:06:24.874Z,11.20
2022-11-14T14:08:37.292Z,12.70
2022-11-14T14:10:34.844Z,12.20
2022-11-14T14:12:39.397Z,12.40
2022-11-14T14:15:06.816Z,11.80
2022-11-14T14:17:21.855Z,15.20
2022-11-14T14:19:36.566Z,12.90
2022-11-14T14:21:57.095Z,11.50
2022-11-14T14:24:01.915Z,13.00
2022-11-14T14:26:26.740Z,11.60
2022-11-14T14:28:47.491Z,13.50
2022-11-14T14:30:37.671Z,12.00
2022-11-14T14:32:27.901Z,12.80
2022-11-14T14:34:28.547Z,11.60
2022-11-14T14:36:26.205Z,13.80
2022-11-14T14:38:29.254Z,10.80
2022-11-14T14:40:28.504Z,11.50
2022-11-14T14:42:21.184Z,14.00
2022-11-14T14:44:36.900Z,15.00
2022-11-14T14:46:32.549Z,16.20
2022-11-14T14:48:30.853Z,11.70
2022-11-14T14:50:25.225Z,13.70
2022-11-14T14:52:26.936Z,14.60
2022-11-14T14:54:26.311Z,11.00
2022-11-14T14:56:24.917Z,13.20
2022-11-14T14:58:22.929Z,12.90
2022-11-14T15:00:26.658Z,13.50
2022-11-14T15:02:26.792Z,11.70
2022-11-14T15:04:20.238Z,9.20
2022-11-14T15:06:30.574Z,12.20
2022-11-14T15:08:20.963Z,12.30
2022-11-14T15:10:25.506Z,14.80
2022-11-14T15:12:16.384Z,14.60
2022-11-14T15:14:13.873Z,12.00
2022-11-14T15:16:06.955Z,14.50
2022-11-14T15:18:05.720Z,12.50
2022-11-14T15:19:55.783Z,13.90
2022-11-14T15:22:01.462Z,13.50
2022-11-14T15:24:19.941Z,12.50
2022-11-14T15:26:17.987Z,10.80
2022-11-14T15:28:21.530Z,13.30
2022-11-14T15:30:27.300Z,15.90
2022-11-14T15:32:25.874Z,11.80
2022-11-14T15:34:29.427Z,10.10
2022-11-14T15:36:19.571Z,14.50
2022-11-14T15:38:42.661Z,14.90
2022-11-14T15:40:23.880Z,13.20
2022-11-14T15:42:21.082Z,12.50
2022-11-14T15:44:31.038Z,14.00
2022-11-14T15:46:47.610Z,12.70
2022-11-14T15:48:41.203Z,13.50
2022-11-14T15:50:34.800Z,11.30
2022-11-14T15:52:30.920Z,14.00
2022-11-14T15:54:31.861Z,12.80
2022-11-14T15:56:21.954Z,14.60
2022-11-14T15:58:27.726Z,13.20
2022-11-14T16:00:19.678Z,14.00
2022-11-14T16:02:17.740Z,12.30
2022-11-14T16:04:16.218Z,13.90
2022-11-14T16:06:10.573Z,12.70
2022-11-14T16:08:01.109Z,14.20
2022-11-14T16:09:53.078Z,11.00
2022-11-14T16:11:44.649Z,15.20
2022-11-14T16:13:35.079Z,16.60
2022-11-14T16:15:25.640Z,16.40
2022-11-14T16:17:17.925Z,14.60
2022-11-14T16:19:14.963Z,13.40
2022-11-14T16:21:05.500Z,12.70
2022-11-14T16:22:58.465Z,14.00
2022-11-14T16:24:48.544Z,12.10
2022-11-14T16:26:38.929Z,12.50
2022-11-14T16:28:29.050Z,15.30
2022-11-14T16:30:21.921Z,14.90
2022-11-14T16:32:12.018Z,11.50
2022-11-14T16:34:02.497Z,13.30
2022-11-14T16:36:12.895Z,15.30
2022-11-14T16:40:44.958Z,12.50
2022-11-14T16:42:35.219Z,10.50
2022-11-14T16:44:25.508Z,10.50
2022-11-14T16:46:16.137Z,11.10
2022-11-14T16:48:06.576Z,12.20
2022-11-14T16:49:56.715Z,12.90
2022-11-14T16:51:50.333Z,14.20
2022-11-14T16:53:40.809Z,14.50
2022-11-14T16:55:31.079Z,15.40
2022-11-14T16:57:21.741Z,13.80
2022-11-14T16:58:57.400Z,15.50
2022-11-14T17:00:47.768Z,13.60
2022-11-14T17:02:40.742Z,13.30
2022-11-14T17:04:31.212Z,15.10
2022-11-14T17:06:21.286Z,13.50
2022-11-14T17:08:11.590Z,17.70
2022-11-14T17:10:04.085Z,12.80
2022-11-14T17:11:54.324Z,12.20
2022-11-14T17:13:44.332Z,13.40
2022-11-14T17:15:35.226Z,14.30
2022-11-14T17:17:25.925Z,15.10
2022-11-14T17:19:16.485Z,14.20
2022-11-14T17:21:08.886Z,16.00
2022-11-14T17:22:59.995Z,12.60
2022-11-14T17:24:50.388Z,15.40
2022-11-14T17:26:40.641Z,13.50
2022-11-14T17:28:31.800Z,12.40
2022-11-14T17:30:25.592Z,12.60
2022-11-14T17:32:17.273Z,11.90
2022-11-14T17:34:10.450Z,11.40
2022-11-14T17:36:07.100Z,15.50
2022-11-14T17:38:00.262Z,13.70
2022-11-14T17:39:51.103Z,13.60
2022-11-14T17:41:41.471Z,18.70
2022-11-14T17:43:38.724Z,15.20
2022-11-14T17:45:31.830Z,10.40
2022-11-14T17:47:21.947Z,14.50
2022-11-14T17:49:12.529Z,13.10
2022-11-14T17:51:12.628Z,13.90
2022-11-14T17:53:03.127Z,14.40
2022-11-14T17:54:53.120Z,11.40
2022-11-14T17:56:48.559Z,13.20
2022-11-14T17:58:43.185Z,14.20
2022-11-14T18:00:33.374Z,15.00
2022-11-14T18:02:23.318Z,14.00
2022-11-14T18:04:13.444Z,11.30
2022-11-14T18:06:07.442Z,13.30
2022-11-14T18:07:59.024Z,11.80
2022-11-14T18:09:49.625Z,14.80
2022-11-14T18:11:39.994Z,17.10
2022-11-14T18:13:31.438Z,13.20
2022-11-14T18:15:27.601Z,14.40
2022-11-14T18:17:18.567Z,13.10
2022-11-14T18:19:09.070Z,15.20
2022-11-14T18:21:06.655Z,13.80
2022-11-14T18:22:56.834Z,13.00
2022-11-14T18:24:47.271Z,15.00
2022-11-14T18:26:37.339Z,14.00
2022-11-14T18:28:27.262Z,15.20
2022-11-14T18:30:40.265Z,16.70
2022-11-14T18:32:28.414Z,13.30
2022-11-14T18:34:19.787Z,12.40
2022-11-14T18:36:12.655Z,14.70
2022-11-14T18:38:02.711Z,14.90
2022-11-14T18:39:52.974Z,15.70
2022-11-14T18:41:43.007Z,14.90
2022-11-14T18:43:34.270Z,13.30
2022-11-14T18:45:24.916Z,12.60
2022-11-14T18:47:15.149Z,13.80
2022-11-14T18:49:05.837Z,16.20
2022-11-14T18:51:05.248Z,14.70
2022-11-14T18:52:55.604Z,14.90
2022-11-14T18:54:46.202Z,15.00
2022-11-14T18:56:36.526Z,13.90
2022-11-14T18:58:31.058Z,12.90
2022-11-14T19:00:21.296Z,12.40
2022-11-14T19:02:11.758Z,15.60
2022-11-14T19:04:06.150Z,13.80
2022-11-14T19:06:03.237Z,14.40
2022-11-14T19:07:54.104Z,13.90
2022-11-14T19:09:45.249Z,11.50
2022-11-14T19:11:54.207Z,14.90
2022-11-14T19:13:44.276Z,14.70
2022-11-14T19:15:35.203Z,12.10
2022-11-14T19:17:25.853Z,12.80
2022-11-14T19:19:16.229Z,15.90
2022-11-14T19:21:06.435Z,15.20
2022-11-14T19:22:56.803Z,13.50
2022-11-14T19:24:47.464Z,13.00
2022-11-14T19:26:37.885Z,13.90
2022-11-14T19:28:32.240Z,14.40
2022-11-14T19:30:23.367Z,12.20
2022-11-14T19:32:13.432Z,11.60
2022-11-14T19:34:03.516Z,12.60
2022-11-14T19:35:54.808Z,15.00
2022-11-14T19:37:45.079Z,12.00
2022-11-14T19:39:35.073Z,12.80
2022-11-14T19:41:28.187Z,9.70
2022-11-14T19:43:19.480Z,14.80
2022-11-14T19:45:10.679Z,13.00
2022-11-14T19:47:02.398Z,14.00
2022-11-14T19:49:00.602Z,13.80
2022-11-14T19:51:02.307Z,13.80
2022-11-14T19:52:52.632Z,11.30
2022-11-14T19:54:47.315Z,13.30
2022-11-14T19:56:37.946Z,12.50
2022-11-14T19:58:29.072Z,11.60
2022-11-14T20:00:19.607Z,11.70
2022-11-14T20:02:15.357Z,9.90
2022-11-14T20:04:07.397Z,12.20
2022-11-14T20:05:58.740Z,13.50
2022-11-14T20:07:49.203Z,13.20
2022-11-14T20:09:39.300Z,12.70
2022-11-14T20:11:30.998Z,15.20
